sensor_id;sensor_type;location;lat;lon;timestamp;P1;durP1;ratioP1;P2;durP2;ratioP2
51495;SDS011;37572;52.094;4.870;2022-10-23T00:00:27;25.63;;;12.60;;
51495;SDS011;37572;52.094;4.870;2022-10-23T00:02:52;26.25;;;13.23;;
51495;SDS011;37572;52.094;4.870;2022-10-23T00:05:18;24.63;;;12.43;;
51495;SDS011;37572;52.094;4.870;2022-10-23T00:07:47;21.65;;;10.90;;
51495;SDS011;37572;52.094;4.870;2022-10-23T00:10:14;24.55;;;12.65;;
51495;SDS011;37572;52.094;4.870;2022-10-23T00:12:39;21.30;;;12.60;;
51495;SDS011;37572;52.094;4.870;2022-10-23T00:15:04;26.35;;;14.45;;
51495;SDS011;37572;52.094;4.870;2022-10-23T00:17:30;22.17;;;14.43;;
51495;SDS011;37572;52.094;4.870;2022-10-23T00:19:56;29.65;;;15.50;;
51495;SDS011;37572;52.094;4.870;2022-10-23T00:22:22;20.55;;;13.48;;
51495;SDS011;37572;52.094;4.870;2022-10-23T00:24:47;28.27;;;15.18;;
51495;SDS011;37572;52.094;4.870;2022-10-23T00:27:12;33.20;;;14.57;;
51495;SDS011;37572;52.094;4.870;2022-10-23T00:29:38;25.75;;;14.60;;
51495;SDS011;37572;52.094;4.870;2022-10-23T00:32:03;28.50;;;16.20;;
51495;SDS011;37572;52.094;4.870;2022-10-23T00:34:28;18.75;;;12.48;;
51495;SDS011;37572;52.094;4.870;2022-10-23T00:36:54;24.58;;;13.50;;
51495;SDS011;37572;52.094;4.870;2022-10-23T00:39:19;25.35;;;14.88;;
51495;SDS011;37572;52.094;4.870;2022-10-23T00:41:44;24.17;;;13.25;;
51495;SDS011;37572;52.094;4.870;2022-10-23T00:45:06;23.95;;;14.45;;
51495;SDS011;37572;52.094;4.870;2022-10-23T00:46:55;21.92;;;13.10;;
51495;SDS011;37572;52.094;4.870;2022-10-23T00:49:21;25.52;;;14.98;;
51495;SDS011;37572;52.094;4.870;2022-10-23T00:51:51;25.23;;;13.15;;
51495;SDS011;37572;52.094;4.870;2022-10-23T00:54:20;22.13;;;12.70;;
51495;SDS011;37572;52.094;4.870;2022-10-23T00:56:48;20.52;;;11.18;;
51495;SDS011;37572;52.094;4.870;2022-10-23T00:59:13;18.45;;;12.38;;
51495;SDS011;37572;52.094;4.870;2022-10-23T01:01:39;21.17;;;12.90;;
51495;SDS011;37572;52.094;4.870;2022-10-23T01:04:05;19.55;;;10.65;;
51495;SDS011;37572;52.094;4.870;2022-10-23T01:06:36;24.42;;;14.38;;
51495;SDS011;37572;52.094;4.870;2022-10-23T01:11:47;21.02;;;13.27;;
51495;SDS011;37572;52.094;4.870;2022-10-23T01:14:22;19.13;;;11.48;;
51495;SDS011;37572;52.094;4.870;2022-10-23T01:17:42;19.70;;;14.05;;
51495;SDS011;37572;52.094;4.870;2022-10-23T01:23:16;16.00;;;11.07;;
51495;SDS011;37572;52.094;4.870;2022-10-23T01:26:07;28.15;;;13.82;;
51495;SDS011;37572;52.094;4.870;2022-10-23T01:28:44;18.48;;;12.25;;
51495;SDS011;37572;52.094;4.870;2022-10-23T01:31:13;22.58;;;14.38;;
51495;SDS011;37572;52.094;4.870;2022-10-23T01:33:46;22.90;;;12.38;;
51495;SDS011;37572;52.094;4.870;2022-10-23T01:36:15;28.33;;;15.35;;
51495;SDS011;37572;52.094;4.870;2022-10-23T01:38:50;24.02;;;13.35;;
51495;SDS011;37572;52.094;4.870;2022-10-23T01:41:29;19.45;;;11.55;;
51495;SDS011;37572;52.094;4.870;2022-10-23T01:44:10;18.15;;;12.55;;
51495;SDS011;37572;52.094;4.870;2022-10-23T01:46:38;17.40;;;13.23;;
51495;SDS011;37572;52.094;4.870;2022-10-23T01:49:04;24.95;;;14.23;;
51495;SDS011;37572;52.094;4.870;2022-10-23T01:51:33;20.48;;;13.15;;
51495;SDS011;37572;52.094;4.870;2022-10-23T01:54:00;26.45;;;13.38;;
51495;SDS011;37572;52.094;4.870;2022-10-23T01:56:31;20.90;;;11.38;;
51495;SDS011;37572;52.094;4.870;2022-10-23T01:58:59;23.55;;;13.45;;
51495;SDS011;37572;52.094;4.870;2022-10-23T02:01:28;31.80;;;14.75;;
51495;SDS011;37572;52.094;4.870;2022-10-23T02:03:55;24.85;;;12.98;;
51495;SDS011;37572;52.094;4.870;2022-10-23T02:06:22;17.63;;;12.35;;
51495;SDS011;37572;52.094;4.870;2022-10-23T02:08:48;23.80;;;13.57;;
51495;SDS011;37572;52.094;4.870;2022-10-23T02:11:14;20.83;;;11.50;;
51495;SDS011;37572;52.094;4.870;2022-10-23T02:16:25;24.63;;;14.23;;
51495;SDS011;37572;52.094;4.870;2022-10-23T02:19:10;22.10;;;12.68;;
51495;SDS011;37572;52.094;4.870;2022-10-23T02:21:53;23.52;;;12.70;;
51495;SDS011;37572;52.094;4.870;2022-10-23T02:24:48;20.27;;;13.02;;
51495;SDS011;37572;52.094;4.870;2022-10-23T02:27:18;21.67;;;13.15;;
51495;SDS011;37572;52.094;4.870;2022-10-23T02:29:54;24.55;;;12.23;;
51495;SDS011;37572;52.094;4.870;2022-10-23T02:32:25;20.23;;;13.07;;
51495;SDS011;37572;52.094;4.870;2022-10-23T02:34:52;21.17;;;13.38;;
51495;SDS011;37572;52.094;4.870;2022-10-23T02:37:18;19.60;;;12.95;;
51495;SDS011;37572;52.094;4.870;2022-10-23T02:39:43;29.23;;;14.73;;
51495;SDS011;37572;52.094;4.870;2022-10-23T02:42:28;20.50;;;12.52;;
51495;SDS011;37572;52.094;4.870;2022-10-23T02:45:17;26.15;;;14.45;;
51495;SDS011;37572;52.094;4.870;2022-10-23T02:47:59;26.50;;;13.52;;
51495;SDS011;37572;52.094;4.870;2022-10-23T02:50:42;24.65;;;13.73;;
51495;SDS011;37572;52.094;4.870;2022-10-23T02:56:00;15.75;;;11.80;;
51495;SDS011;37572;52.094;4.870;2022-10-23T03:01:04;24.63;;;11.73;;
51495;SDS011;37572;52.094;4.870;2022-10-23T03:03:41;20.95;;;14.32;;
51495;SDS011;37572;52.094;4.870;2022-10-23T03:06:11;22.02;;;12.25;;
51495;SDS011;37572;52.094;4.870;2022-10-23T03:08:44;21.45;;;12.20;;
51495;SDS011;37572;52.094;4.870;2022-10-23T03:11:13;16.77;;;11.25;;
51495;SDS011;37572;52.094;4.870;2022-10-23T03:13:39;19.30;;;12.20;;
51495;SDS011;37572;52.094;4.870;2022-10-23T03:16:04;24.92;;;13.63;;
51495;SDS011;37572;52.094;4.870;2022-10-23T03:18:29;25.70;;;12.23;;
51495;SDS011;37572;52.094;4.870;2022-10-23T03:20:55;22.73;;;12.68;;
51495;SDS011;37572;52.094;4.870;2022-10-23T03:23:20;19.63;;;13.18;;
51495;SDS011;37572;52.094;4.870;2022-10-23T03:25:46;20.77;;;13.23;;
51495;SDS011;37572;52.094;4.870;2022-10-23T03:28:11;22.77;;;11.85;;
51495;SDS011;37572;52.094;4.870;2022-10-23T03:30:36;16.08;;;12.20;;
51495;SDS011;37572;52.094;4.870;2022-10-23T03:33:02;20.35;;;12.85;;
51495;SDS011;37572;52.094;4.870;2022-10-23T03:35:27;26.50;;;12.27;;
51495;SDS011;37572;52.094;4.870;2022-10-23T03:37:52;22.55;;;13.30;;
51495;SDS011;37572;52.094;4.870;2022-10-23T03:40:17;24.08;;;13.10;;
51495;SDS011;37572;52.094;4.870;2022-10-23T03:42:43;18.52;;;12.10;;
51495;SDS011;37572;52.094;4.870;2022-10-23T03:45:08;18.63;;;12.63;;
51495;SDS011;37572;52.094;4.870;2022-10-23T03:47:33;20.77;;;12.65;;
51495;SDS011;37572;52.094;4.870;2022-10-23T03:49:59;22.83;;;12.85;;
51495;SDS011;37572;52.094;4.870;2022-10-23T03:52:25;22.65;;;14.30;;
51495;SDS011;37572;52.094;4.870;2022-10-23T03:54:50;20.70;;;12.15;;
51495;SDS011;37572;52.094;4.870;2022-10-23T03:57:16;24.27;;;11.25;;
51495;SDS011;37572;52.094;4.870;2022-10-23T03:59:41;19.52;;;11.90;;
51495;SDS011;37572;52.094;4.870;2022-10-23T04:02:06;20.05;;;12.05;;
51495;SDS011;37572;52.094;4.870;2022-10-23T04:04:31;18.17;;;11.43;;
51495;SDS011;37572;52.094;4.870;2022-10-23T04:06:57;18.13;;;11.63;;
51495;SDS011;37572;52.094;4.870;2022-10-23T04:09:23;22.83;;;11.70;;
51495;SDS011;37572;52.094;4.870;2022-10-23T04:11:48;20.08;;;12.88;;
51495;SDS011;37572;52.094;4.870;2022-10-23T04:14:14;19.02;;;12.60;;
51495;SDS011;37572;52.094;4.870;2022-10-23T04:16:39;24.30;;;13.57;;
51495;SDS011;37572;52.094;4.870;2022-10-23T04:19:05;19.42;;;11.68;;
51495;SDS011;37572;52.094;4.870;2022-10-23T04:21:30;16.67;;;11.82;;
51495;SDS011;37572;52.094;4.870;2022-10-23T04:23:55;12.85;;;9.88;;
51495;SDS011;37572;52.094;4.870;2022-10-23T04:26:21;19.35;;;10.05;;
51495;SDS011;37572;52.094;4.870;2022-10-23T04:28:46;20.90;;;12.85;;
51495;SDS011;37572;52.094;4.870;2022-10-23T04:31:11;21.80;;;12.35;;
51495;SDS011;37572;52.094;4.870;2022-10-23T04:33:37;18.27;;;11.93;;
51495;SDS011;37572;52.094;4.870;2022-10-23T04:36:02;16.90;;;11.90;;
51495;SDS011;37572;52.094;4.870;2022-10-23T04:38:28;23.15;;;12.18;;
51495;SDS011;37572;52.094;4.870;2022-10-23T04:40:53;17.20;;;10.55;;
51495;SDS011;37572;52.094;4.870;2022-10-23T04:43:18;22.35;;;11.80;;
51495;SDS011;37572;52.094;4.870;2022-10-23T04:45:43;19.05;;;10.90;;
51495;SDS011;37572;52.094;4.870;2022-10-23T04:48:09;20.88;;;11.20;;
51495;SDS011;37572;52.094;4.870;2022-10-23T04:50:34;21.55;;;11.77;;
51495;SDS011;37572;52.094;4.870;2022-10-23T04:52:59;21.38;;;12.38;;
51495;SDS011;37572;52.094;4.870;2022-10-23T04:55:24;19.10;;;11.73;;
51495;SDS011;37572;52.094;4.870;2022-10-23T04:57:50;17.80;;;11.43;;
51495;SDS011;37572;52.094;4.870;2022-10-23T05:00:16;19.60;;;11.57;;
51495;SDS011;37572;52.094;4.870;2022-10-23T05:02:42;19.52;;;11.07;;
51495;SDS011;37572;52.094;4.870;2022-10-23T05:05:08;14.95;;;9.32;;
51495;SDS011;37572;52.094;4.870;2022-10-23T05:07:34;22.90;;;10.70;;
51495;SDS011;37572;52.094;4.870;2022-10-23T05:10:00;20.33;;;11.30;;
51495;SDS011;37572;52.094;4.870;2022-10-23T05:12:27;21.60;;;11.60;;
51495;SDS011;37572;52.094;4.870;2022-10-23T05:14:52;21.83;;;10.38;;
51495;SDS011;37572;52.094;4.870;2022-10-23T05:17:22;15.70;;;9.88;;
51495;SDS011;37572;52.094;4.870;2022-10-23T05:19:55;18.55;;;10.85;;
51495;SDS011;37572;52.094;4.870;2022-10-23T05:22:24;21.08;;;9.60;;
51495;SDS011;37572;52.094;4.870;2022-10-23T05:24:54;15.52;;;9.30;;
51495;SDS011;37572;52.094;4.870;2022-10-23T05:27:19;19.75;;;10.07;;
51495;SDS011;37572;52.094;4.870;2022-10-23T05:29:44;23.50;;;10.05;;
51495;SDS011;37572;52.094;4.870;2022-10-23T05:32:10;14.05;;;10.10;;
51495;SDS011;37572;52.094;4.870;2022-10-23T05:34:38;18.75;;;9.90;;
51495;SDS011;37572;52.094;4.870;2022-10-23T05:37:06;18.67;;;10.23;;
51495;SDS011;37572;52.094;4.870;2022-10-23T05:39:34;16.30;;;8.88;;
51495;SDS011;37572;52.094;4.870;2022-10-23T05:41:59;19.73;;;10.32;;
51495;SDS011;37572;52.094;4.870;2022-10-23T05:44:25;11.57;;;8.40;;
51495;SDS011;37572;52.094;4.870;2022-10-23T05:46:50;17.00;;;10.45;;
51495;SDS011;37572;52.094;4.870;2022-10-23T05:49:15;15.65;;;10.00;;
51495;SDS011;37572;52.094;4.870;2022-10-23T05:51:41;20.42;;;9.45;;
51495;SDS011;37572;52.094;4.870;2022-10-23T05:54:06;11.63;;;8.15;;
51495;SDS011;37572;52.094;4.870;2022-10-23T05:56:36;21.98;;;11.40;;
51495;SDS011;37572;52.094;4.870;2022-10-23T05:59:03;13.68;;;9.23;;
51495;SDS011;37572;52.094;4.870;2022-10-23T06:01:28;16.38;;;10.43;;
51495;SDS011;37572;52.094;4.870;2022-10-23T06:03:54;15.88;;;9.10;;
51495;SDS011;37572;52.094;4.870;2022-10-23T06:06:19;21.33;;;10.80;;
51495;SDS011;37572;52.094;4.870;2022-10-23T06:08:46;18.63;;;11.10;;
51495;SDS011;37572;52.094;4.870;2022-10-23T06:11:12;20.15;;;10.68;;
51495;SDS011;37572;52.094;4.870;2022-10-23T06:13:41;18.90;;;10.73;;
51495;SDS011;37572;52.094;4.870;2022-10-23T06:16:14;20.73;;;10.45;;
51495;SDS011;37572;52.094;4.870;2022-10-23T06:18:44;17.65;;;11.23;;
51495;SDS011;37572;52.094;4.870;2022-10-23T06:21:10;12.57;;;10.13;;
51495;SDS011;37572;52.094;4.870;2022-10-23T06:23:36;22.92;;;10.98;;
51495;SDS011;37572;52.094;4.870;2022-10-23T06:26:03;17.92;;;10.25;;
51495;SDS011;37572;52.094;4.870;2022-10-23T06:28:30;15.30;;;9.55;;
51495;SDS011;37572;52.094;4.870;2022-10-23T06:30:55;14.32;;;8.27;;
51495;SDS011;37572;52.094;4.870;2022-10-23T06:33:20;28.08;;;10.82;;
51495;SDS011;37572;52.094;4.870;2022-10-23T06:35:46;15.13;;;8.98;;
51495;SDS011;37572;52.094;4.870;2022-10-23T06:38:11;23.73;;;9.77;;
51495;SDS011;37572;52.094;4.870;2022-10-23T06:40:36;20.52;;;10.45;;
51495;SDS011;37572;52.094;4.870;2022-10-23T06:43:02;16.92;;;9.27;;
51495;SDS011;37572;52.094;4.870;2022-10-23T06:45:29;12.10;;;8.30;;
51495;SDS011;37572;52.094;4.870;2022-10-23T06:47:56;17.88;;;9.00;;
51495;SDS011;37572;52.094;4.870;2022-10-23T06:50:22;16.55;;;9.18;;
51495;SDS011;37572;52.094;4.870;2022-10-23T06:52:49;18.23;;;9.00;;
51495;SDS011;37572;52.094;4.870;2022-10-23T06:55:14;14.07;;;8.65;;
51495;SDS011;37572;52.094;4.870;2022-10-23T06:57:39;13.52;;;7.68;;
51495;SDS011;37572;52.094;4.870;2022-10-23T07:00:05;18.85;;;9.32;;
51495;SDS011;37572;52.094;4.870;2022-10-23T07:02:31;16.58;;;9.73;;
51495;SDS011;37572;52.094;4.870;2022-10-23T07:04:56;15.07;;;8.27;;
51495;SDS011;37572;52.094;4.870;2022-10-23T07:07:21;20.05;;;9.10;;
51495;SDS011;37572;52.094;4.870;2022-10-23T07:09:47;20.88;;;8.68;;
51495;SDS011;37572;52.094;4.870;2022-10-23T07:12:12;14.68;;;8.57;;
51495;SDS011;37572;52.094;4.870;2022-10-23T07:14:37;16.33;;;8.52;;
51495;SDS011;37572;52.094;4.870;2022-10-23T07:17:03;19.13;;;9.15;;
51495;SDS011;37572;52.094;4.870;2022-10-23T07:19:28;17.70;;;9.40;;
51495;SDS011;37572;52.094;4.870;2022-10-23T07:21:53;18.40;;;8.18;;
51495;SDS011;37572;52.094;4.870;2022-10-23T07:24:19;12.13;;;7.53;;
51495;SDS011;37572;52.094;4.870;2022-10-23T07:26:44;14.45;;;8.75;;
51495;SDS011;37572;52.094;4.870;2022-10-23T07:29:10;21.70;;;8.80;;
51495;SDS011;37572;52.094;4.870;2022-10-23T07:31:36;16.48;;;9.15;;
51495;SDS011;37572;52.094;4.870;2022-10-23T07:34:01;15.60;;;8.82;;
51495;SDS011;37572;52.094;4.870;2022-10-23T07:36:27;14.48;;;8.07;;
51495;SDS011;37572;52.094;4.870;2022-10-23T07:38:52;12.88;;;8.10;;
51495;SDS011;37572;52.094;4.870;2022-10-23T07:41:17;7.88;;;6.60;;
51495;SDS011;37572;52.094;4.870;2022-10-23T07:43:43;13.35;;;8.18;;
51495;SDS011;37572;52.094;4.870;2022-10-23T07:46:08;13.48;;;8.18;;
51495;SDS011;37572;52.094;4.870;2022-10-23T07:48:34;11.00;;;6.28;;
51495;SDS011;37572;52.094;4.870;2022-10-23T07:51:02;12.52;;;6.97;;
51495;SDS011;37572;52.094;4.870;2022-10-23T07:53:32;13.00;;;8.27;;
51495;SDS011;37572;52.094;4.870;2022-10-23T07:56:00;12.05;;;8.20;;
51495;SDS011;37572;52.094;4.870;2022-10-23T07:58:27;16.05;;;8.55;;
51495;SDS011;37572;52.094;4.870;2022-10-23T08:00:55;13.80;;;8.45;;
51495;SDS011;37572;52.094;4.870;2022-10-23T08:03:22;14.80;;;8.55;;
51495;SDS011;37572;52.094;4.870;2022-10-23T08:05:52;15.88;;;8.27;;
51495;SDS011;37572;52.094;4.870;2022-10-23T08:08:19;14.77;;;8.38;;
51495;SDS011;37572;52.094;4.870;2022-10-23T08:10:46;10.13;;;7.35;;
51495;SDS011;37572;52.094;4.870;2022-10-23T08:13:12;15.60;;;7.70;;
51495;SDS011;37572;52.094;4.870;2022-10-23T08:15:38;16.20;;;8.23;;
51495;SDS011;37572;52.094;4.870;2022-10-23T08:18:05;13.32;;;7.60;;
51495;SDS011;37572;52.094;4.870;2022-10-23T08:20:30;18.50;;;7.78;;
51495;SDS011;37572;52.094;4.870;2022-10-23T08:22:56;12.57;;;7.07;;
51495;SDS011;37572;52.094;4.870;2022-10-23T08:25:21;11.25;;;7.20;;
51495;SDS011;37572;52.094;4.870;2022-10-23T08:27:46;14.20;;;6.78;;
51495;SDS011;37572;52.094;4.870;2022-10-23T08:30:12;12.93;;;8.40;;
51495;SDS011;37572;52.094;4.870;2022-10-23T08:32:37;13.18;;;7.63;;
51495;SDS011;37572;52.094;4.870;2022-10-23T08:35:02;15.45;;;7.82;;
51495;SDS011;37572;52.094;4.870;2022-10-23T08:37:28;16.67;;;7.97;;
51495;SDS011;37572;52.094;4.870;2022-10-23T08:39:53;12.13;;;7.35;;
51495;SDS011;37572;52.094;4.870;2022-10-23T08:42:23;19.92;;;7.35;;
51495;SDS011;37572;52.094;4.870;2022-10-23T08:47:53;11.90;;;6.93;;
51495;SDS011;37572;52.094;4.870;2022-10-23T08:50:33;11.95;;;7.60;;
51495;SDS011;37572;52.094;4.870;2022-10-23T08:53:08;17.52;;;7.32;;
51495;SDS011;37572;52.094;4.870;2022-10-23T08:58:44;10.90;;;6.75;;
51495;SDS011;37572;52.094;4.870;2022-10-23T09:04:01;14.40;;;7.13;;
51495;SDS011;37572;52.094;4.870;2022-10-23T09:06:42;16.13;;;7.30;;
51495;SDS011;37572;52.094;4.870;2022-10-23T09:09:33;12.65;;;7.38;;
51495;SDS011;37572;52.094;4.870;2022-10-23T09:12:04;10.80;;;6.55;;
51495;SDS011;37572;52.094;4.870;2022-10-23T09:17:20;13.75;;;7.95;;
51495;SDS011;37572;52.094;4.870;2022-10-23T09:19:58;8.98;;;5.57;;
51495;SDS011;37572;52.094;4.870;2022-10-23T09:22:29;9.88;;;6.97;;
51495;SDS011;37572;52.094;4.870;2022-10-23T09:24:54;16.70;;;7.63;;
51495;SDS011;37572;52.094;4.870;2022-10-23T09:27:21;9.43;;;7.25;;
51495;SDS011;37572;52.094;4.870;2022-10-23T09:29:48;8.40;;;6.88;;
51495;SDS011;37572;52.094;4.870;2022-10-23T09:32:18;17.33;;;7.43;;
51495;SDS011;37572;52.094;4.870;2022-10-23T09:34:49;9.43;;;7.35;;
51495;SDS011;37572;52.094;4.870;2022-10-23T09:37:24;13.20;;;6.15;;
51495;SDS011;37572;52.094;4.870;2022-10-23T09:40:03;11.20;;;7.65;;
51495;SDS011;37572;52.094;4.870;2022-10-23T09:42:49;13.98;;;5.97;;
51495;SDS011;37572;52.094;4.870;2022-10-23T09:45:23;20.02;;;7.50;;
51495;SDS011;37572;52.094;4.870;2022-10-23T09:50:46;7.53;;;6.28;;
51495;SDS011;37572;52.094;4.870;2022-10-23T09:53:14;11.88;;;7.28;;
51495;SDS011;37572;52.094;4.870;2022-10-23T09:55:49;14.93;;;7.57;;
51495;SDS011;37572;52.094;4.870;2022-10-23T09:58:32;8.73;;;5.90;;
51495;SDS011;37572;52.094;4.870;2022-10-23T10:01:02;10.63;;;6.78;;
51495;SDS011;37572;52.094;4.870;2022-10-23T10:03:28;13.80;;;7.15;;
51495;SDS011;37572;52.094;4.870;2022-10-23T10:05:58;7.18;;;6.13;;
51495;SDS011;37572;52.094;4.870;2022-10-23T10:08:34;17.05;;;6.90;;
51495;SDS011;37572;52.094;4.870;2022-10-23T10:11:15;13.25;;;7.13;;
51495;SDS011;37572;52.094;4.870;2022-10-23T10:14:08;9.68;;;6.90;;
51495;SDS011;37572;52.094;4.870;2022-10-23T10:16:51;13.73;;;7.10;;
51495;SDS011;37572;52.094;4.870;2022-10-23T10:28:07;13.70;;;6.75;;
51495;SDS011;37572;52.094;4.870;2022-10-23T10:33:59;7.28;;;5.93;;
51495;SDS011;37572;52.094;4.870;2022-10-23T10:36:49;13.00;;;5.85;;
51495;SDS011;37572;52.094;4.870;2022-10-23T10:39:22;11.70;;;6.77;;
51495;SDS011;37572;52.094;4.870;2022-10-23T10:44:41;13.35;;;7.20;;
51495;SDS011;37572;52.094;4.870;2022-10-23T10:47:30;17.02;;;7.25;;
51495;SDS011;37572;52.094;4.870;2022-10-23T10:52:43;7.53;;;5.32;;
51495;SDS011;37572;52.094;4.870;2022-10-23T11:00:44;17.77;;;6.63;;
51495;SDS011;37572;52.094;4.870;2022-10-23T11:03:28;10.40;;;6.15;;
51495;SDS011;37572;52.094;4.870;2022-10-23T11:06:14;10.23;;;5.63;;
51495;SDS011;37572;52.094;4.870;2022-10-23T11:08:43;6.82;;;5.13;;
51495;SDS011;37572;52.094;4.870;2022-10-23T11:11:13;11.18;;;6.13;;
51495;SDS011;37572;52.094;4.870;2022-10-23T11:13:43;10.23;;;5.65;;
51495;SDS011;37572;52.094;4.870;2022-10-23T11:16:13;8.68;;;5.50;;
51495;SDS011;37572;52.094;4.870;2022-10-23T11:18:50;10.30;;;5.55;;
51495;SDS011;37572;52.094;4.870;2022-10-23T11:26:14;8.80;;;5.07;;
51495;SDS011;37572;52.094;4.870;2022-10-23T11:37:14;7.95;;;4.20;;
51495;SDS011;37572;52.094;4.870;2022-10-23T11:39:57;9.52;;;5.13;;
51495;SDS011;37572;52.094;4.870;2022-10-23T11:50:32;8.18;;;4.63;;
51495;SDS011;37572;52.094;4.870;2022-10-23T11:53:24;6.00;;;4.20;;
51495;SDS011;37572;52.094;4.870;2022-10-23T11:55:56;5.85;;;4.38;;
51495;SDS011;37572;52.094;4.870;2022-10-23T11:58:22;9.73;;;5.03;;
51495;SDS011;37572;52.094;4.870;2022-10-23T12:01:02;7.15;;;4.13;;
51495;SDS011;37572;52.094;4.870;2022-10-23T12:03:40;6.32;;;3.75;;
51495;SDS011;37572;52.094;4.870;2022-10-23T12:06:18;5.18;;;3.65;;
51495;SDS011;37572;52.094;4.870;2022-10-23T12:08:49;8.35;;;4.70;;
51495;SDS011;37572;52.094;4.870;2022-10-23T12:11:25;9.20;;;4.18;;
51495;SDS011;37572;52.094;4.870;2022-10-23T12:13:53;9.65;;;4.10;;
51495;SDS011;37572;52.094;4.870;2022-10-23T12:16:18;6.05;;;4.13;;
51495;SDS011;37572;52.094;4.870;2022-10-23T12:18:51;10.13;;;3.88;;
51495;SDS011;37572;52.094;4.870;2022-10-23T12:21:21;10.27;;;4.20;;
51495;SDS011;37572;52.094;4.870;2022-10-23T12:34:44;7.28;;;4.00;;
51495;SDS011;37572;52.094;4.870;2022-10-23T12:39:54;7.88;;;4.10;;
51495;SDS011;37572;52.094;4.870;2022-10-23T12:42:21;7.80;;;4.57;;
51495;SDS011;37572;52.094;4.870;2022-10-23T12:47:32;9.18;;;3.70;;
51495;SDS011;37572;52.094;4.870;2022-10-23T12:49:57;8.95;;;4.18;;
51495;SDS011;37572;52.094;4.870;2022-10-23T12:52:23;10.05;;;4.55;;
51495;SDS011;37572;52.094;4.870;2022-10-23T12:54:51;6.70;;;4.40;;
51495;SDS011;37572;52.094;4.870;2022-10-23T12:57:21;7.45;;;4.40;;
51495;SDS011;37572;52.094;4.870;2022-10-23T12:59:50;12.40;;;4.53;;
51495;SDS011;37572;52.094;4.870;2022-10-23T13:04:52;6.38;;;4.43;;
51495;SDS011;37572;52.094;4.870;2022-10-23T13:07:34;7.60;;;4.55;;
51495;SDS011;37572;52.094;4.870;2022-10-23T13:10:02;10.23;;;5.07;;
51495;SDS011;37572;52.094;4.870;2022-10-23T13:12:30;11.80;;;5.53;;
51495;SDS011;37572;52.094;4.870;2022-10-23T13:14:59;5.22;;;4.28;;
51495;SDS011;37572;52.094;4.870;2022-10-23T13:17:34;6.90;;;4.00;;
51495;SDS011;37572;52.094;4.870;2022-10-23T13:22:42;8.02;;;4.65;;
51495;SDS011;37572;52.094;4.870;2022-10-23T13:25:18;6.38;;;4.47;;
51495;SDS011;37572;52.094;4.870;2022-10-23T13:27:44;7.95;;;4.28;;
51495;SDS011;37572;52.094;4.870;2022-10-23T13:32:55;8.90;;;3.80;;
51495;SDS011;37572;52.094;4.870;2022-10-23T13:35:20;11.27;;;4.75;;
51495;SDS011;37572;52.094;4.870;2022-10-23T13:37:47;6.75;;;4.10;;
51495;SDS011;37572;52.094;4.870;2022-10-23T13:40:19;11.65;;;4.60;;
51495;SDS011;37572;52.094;4.870;2022-10-23T13:42:48;8.57;;;4.28;;
51495;SDS011;37572;52.094;4.870;2022-10-23T13:45:15;12.52;;;5.50;;
51495;SDS011;37572;52.094;4.870;2022-10-23T13:47:44;8.98;;;4.35;;
51495;SDS011;37572;52.094;4.870;2022-10-23T13:50:09;9.70;;;4.82;;
51495;SDS011;37572;52.094;4.870;2022-10-23T13:52:35;7.22;;;4.65;;
51495;SDS011;37572;52.094;4.870;2022-10-23T13:55:01;10.05;;;4.18;;
51495;SDS011;37572;52.094;4.870;2022-10-23T13:57:26;7.10;;;4.18;;
51495;SDS011;37572;52.094;4.870;2022-10-23T13:59:51;9.75;;;4.10;;
51495;SDS011;37572;52.094;4.870;2022-10-23T14:02:20;13.27;;;4.50;;
51495;SDS011;37572;52.094;4.870;2022-10-23T14:04:48;8.63;;;3.75;;
51495;SDS011;37572;52.094;4.870;2022-10-23T14:07:15;5.95;;;4.22;;
51495;SDS011;37572;52.094;4.870;2022-10-23T14:09:41;10.05;;;3.67;;
51495;SDS011;37572;52.094;4.870;2022-10-23T14:12:07;9.32;;;3.90;;
51495;SDS011;37572;52.094;4.870;2022-10-23T14:14:33;10.52;;;3.67;;
51495;SDS011;37572;52.094;4.870;2022-10-23T14:16:58;6.20;;;3.70;;
51495;SDS011;37572;52.094;4.870;2022-10-23T14:19:23;8.45;;;3.78;;
51495;SDS011;37572;52.094;4.870;2022-10-23T14:21:48;10.38;;;3.97;;
51495;SDS011;37572;52.094;4.870;2022-10-23T14:24:14;10.77;;;3.60;;
51495;SDS011;37572;52.094;4.870;2022-10-23T14:26:39;12.30;;;3.60;;
51495;SDS011;37572;52.094;4.870;2022-10-23T14:29:05;6.55;;;2.85;;
51495;SDS011;37572;52.094;4.870;2022-10-23T14:31:30;8.70;;;4.18;;
51495;SDS011;37572;52.094;4.870;2022-10-23T14:33:56;5.50;;;3.20;;
51495;SDS011;37572;52.094;4.870;2022-10-23T14:36:24;5.88;;;3.60;;
51495;SDS011;37572;52.094;4.870;2022-10-23T14:38:53;9.20;;;2.80;;
51495;SDS011;37572;52.094;4.870;2022-10-23T14:41:20;7.40;;;3.08;;
51495;SDS011;37572;52.094;4.870;2022-10-23T14:43:45;16.83;;;2.92;;
51495;SDS011;37572;52.094;4.870;2022-10-23T14:46:14;9.13;;;3.33;;
51495;SDS011;37572;52.094;4.870;2022-10-23T14:48:41;9.15;;;3.45;;
51495;SDS011;37572;52.094;4.870;2022-10-23T14:51:13;7.53;;;3.53;;
51495;SDS011;37572;52.094;4.870;2022-10-23T14:53:44;6.05;;;2.65;;
51495;SDS011;37572;52.094;4.870;2022-10-23T14:56:10;9.95;;;3.40;;
51495;SDS011;37572;52.094;4.870;2022-10-23T14:58:35;9.75;;;3.63;;
51495;SDS011;37572;52.094;4.870;2022-10-23T15:01:01;7.25;;;3.25;;
51495;SDS011;37572;52.094;4.870;2022-10-23T15:03:29;8.18;;;3.10;;
51495;SDS011;37572;52.094;4.870;2022-10-23T15:05:54;11.05;;;3.40;;
51495;SDS011;37572;52.094;4.870;2022-10-23T15:08:21;9.95;;;3.25;;
51495;SDS011;37572;52.094;4.870;2022-10-23T15:10:47;7.60;;;3.28;;
51495;SDS011;37572;52.094;4.870;2022-10-23T15:13:12;4.50;;;2.95;;
51495;SDS011;37572;52.094;4.870;2022-10-23T15:15:39;5.18;;;3.22;;
51495;SDS011;37572;52.094;4.870;2022-10-23T15:18:04;12.68;;;3.60;;
51495;SDS011;37572;52.094;4.870;2022-10-23T15:20:30;5.85;;;3.60;;
51495;SDS011;37572;52.094;4.870;2022-10-23T15:22:55;7.68;;;3.42;;
51495;SDS011;37572;52.094;4.870;2022-10-23T15:25:20;6.30;;;2.88;;
51495;SDS011;37572;52.094;4.870;2022-10-23T15:27:46;7.47;;;3.22;;
51495;SDS011;37572;52.094;4.870;2022-10-23T15:30:12;9.93;;;3.78;;
51495;SDS011;37572;52.094;4.870;2022-10-23T15:32:37;5.68;;;2.78;;
51495;SDS011;37572;52.094;4.870;2022-10-23T15:35:03;6.95;;;3.78;;
51495;SDS011;37572;52.094;4.870;2022-10-23T15:37:28;13.00;;;3.85;;
51495;SDS011;37572;52.094;4.870;2022-10-23T15:39:55;11.07;;;3.22;;
51495;SDS011;37572;52.094;4.870;2022-10-23T15:42:21;8.27;;;3.35;;
51495;SDS011;37572;52.094;4.870;2022-10-23T15:44:46;10.68;;;3.90;;
51495;SDS011;37572;52.094;4.870;2022-10-23T15:47:12;9.98;;;3.63;;
51495;SDS011;37572;52.094;4.870;2022-10-23T15:49:38;8.80;;;3.63;;
51495;SDS011;37572;52.094;4.870;2022-10-23T15:52:05;7.30;;;3.30;;
51495;SDS011;37572;52.094;4.870;2022-10-23T15:54:32;6.72;;;3.35;;
51495;SDS011;37572;52.094;4.870;2022-10-23T15:56:59;7.93;;;3.05;;
51495;SDS011;37572;52.094;4.870;2022-10-23T15:59:24;6.05;;;3.28;;
51495;SDS011;37572;52.094;4.870;2022-10-23T16:01:50;5.18;;;3.00;;
51495;SDS011;37572;52.094;4.870;2022-10-23T16:04:15;7.78;;;3.35;;
51495;SDS011;37572;52.094;4.870;2022-10-23T16:06:42;9.45;;;2.78;;
51495;SDS011;37572;52.094;4.870;2022-10-23T16:09:08;7.60;;;3.55;;
51495;SDS011;37572;52.094;4.870;2022-10-23T16:11:34;5.22;;;3.05;;
51495;SDS011;37572;52.094;4.870;2022-10-23T16:14:01;6.75;;;3.45;;
51495;SDS011;37572;52.094;4.870;2022-10-23T16:16:27;9.80;;;3.50;;
51495;SDS011;37572;52.094;4.870;2022-10-23T16:18:53;6.97;;;3.45;;